地図

経路データ

SID SEASON NUMBER BASIN SUBBASIN NAME ISO_TIME NATURE LAT LON WMO_WIND WMO_PRES WMO_AGENCY TRACK_TYPE DIST2LAND LANDFALL IFLAG USA_AGENCY USA_ATCF_ID USA_LAT USA_LON USA_RECORD USA_STATUS USA_WIND USA_PRES USA_SSHS USA_R34_NE USA_R34_SE USA_R34_SW USA_R34_NW USA_R50_NE USA_R50_SE USA_R50_SW USA_R50_NW USA_R64_NE USA_R64_SE USA_R64_SW USA_R64_NW USA_POCI USA_ROCI USA_RMW USA_EYE TOKYO_LAT TOKYO_LON TOKYO_GRADE TOKYO_WIND TOKYO_PRES TOKYO_R50_DIR TOKYO_R50_LONG TOKYO_R50_SHORT TOKYO_R30_DIR TOKYO_R30_LONG TOKYO_R30_SHORT TOKYO_LAND CMA_LAT CMA_LON CMA_CAT CMA_WIND CMA_PRES HKO_LAT HKO_LON HKO_CAT HKO_WIND HKO_PRES NEWDELHI_LAT NEWDELHI_LON NEWDELHI_GRADE NEWDELHI_WIND NEWDELHI_PRES NEWDELHI_CI NEWDELHI_DP NEWDELHI_POCI REUNION_LAT REUNION_LON REUNION_TYPE REUNION_WIND REUNION_PRES REUNION_TNUM REUNION_CI REUNION_RMW REUNION_R34_NE REUNION_R34_SE REUNION_R34_SW REUNION_R34_NW REUNION_R50_NE REUNION_R50_SE REUNION_R50_SW REUNION_R50_NW REUNION_R64_NE REUNION_R64_SE REUNION_R64_SW REUNION_R64_NW BOM_LAT BOM_LON BOM_TYPE BOM_WIND BOM_PRES BOM_TNUM BOM_CI BOM_RMW BOM_R34_NE BOM_R34_SE BOM_R34_SW BOM_R34_NW BOM_R50_NE BOM_R50_SE BOM_R50_SW BOM_R50_NW BOM_R64_NE BOM_R64_SE BOM_R64_SW BOM_R64_NW BOM_ROCI BOM_POCI BOM_EYE BOM_POS_METHOD BOM_PRES_METHOD NADI_LAT NADI_LON NADI_CAT NADI_WIND NADI_PRES WELLINGTON_LAT WELLINGTON_LON WELLINGTON_WIND WELLINGTON_PRES DS824_LAT DS824_LON DS824_STAGE DS824_WIND DS824_PRES TD9636_LAT TD9636_LON TD9636_STAGE TD9636_WIND TD9636_PRES TD9635_LAT TD9635_LON TD9635_WIND TD9635_PRES TD9635_ROCI NEUMANN_LAT NEUMANN_LON NEUMANN_CLASS NEUMANN_WIND NEUMANN_PRES MLC_LAT MLC_LON MLC_CLASS MLC_WIND MLC_PRES USA_GUST BOM_GUST BOM_GUST_PER REUNION_GUST REUNION_GUST_PER USA_SEAHGT USA_SEARAD_NE USA_SEARAD_SE USA_SEARAD_SW USA_SEARAD_NW STORM_SPEED STORM_DIR
1997253N12255 1997 81 EP MM LINDA 1997-09-09 12:00:00 TS 12.4000 -104.700 25 1007 hurdat_epa main 666 645 O_____________ hurdat_epa EP141997 12.4000 -104.700 TD 25 1007 -1 10 308
1997253N12255 1997 81 EP MM LINDA 1997-09-09 15:00:00 TS 12.7126 -105.115 main 648 627 P_____________ EP141997 12.7126 -105.115 TD 27 1006 -1 10 308
1997253N12255 1997 81 EP MM LINDA 1997-09-09 18:00:00 TS 13.0000 -105.500 30 1006 hurdat_epa main 630 617 O_____________ hurdat_epa EP141997 13.0000 -105.500 TD 30 1006 -1 9 308
1997253N12255 1997 81 EP MM LINDA 1997-09-09 21:00:00 TS 13.2499 -105.830 main 621 604 P_____________ EP141997 13.2499 -105.830 TD 32 1005 -1 8 311
1997253N12255 1997 81 EP MM LINDA 1997-09-10 00:00:00 TS 13.5000 -106.100 35 1005 hurdat_epa main 604 585 O_____________ hurdat_epa EP141997 13.5000 -106.100 TS 35 1005 0 7 319
1997253N12255 1997 81 EP MM LINDA 1997-09-10 03:00:00 TS 13.8075 -106.323 main 585 568 P_____________ EP141997 13.8075 -106.323 TS 37 1003 0 7 327
1997253N12255 1997 81 EP MM LINDA 1997-09-10 06:00:00 TS 14.1000 -106.500 40 1002 hurdat_epa main 568 556 O_____________ hurdat_epa EP141997 14.1000 -106.500 TS 40 1002 0 6 327
1997253N12255 1997 81 EP MM LINDA 1997-09-10 09:00:00 TS 14.3150 -106.658 main 563 552 P_____________ EP141997 14.3150 -106.658 TS 45 1000 0 5 324
1997253N12255 1997 81 EP MM LINDA 1997-09-10 12:00:00 TS 14.5000 -106.800 50 998 hurdat_epa main 552 541 O_____________ hurdat_epa EP141997 14.5000 -106.800 TS 50 998 0 5 323
1997253N12255 1997 81 EP MM LINDA 1997-09-10 15:00:00 TS 14.6925 -106.950 main 549 539 P_____________ EP141997 14.6925 -106.950 TS 52 996 0 5 324
1997253N12255 1997 81 EP MM LINDA 1997-09-10 18:00:00 TS 14.9000 -107.100 55 994 hurdat_epa main 539 524 O_____________ hurdat_epa EP141997 14.9000 -107.100 TS 55 994 0 5 329
1997253N12255 1997 81 EP MM LINDA 1997-09-10 21:00:00 TS 15.1575 -107.243 main 515 506 P_____________ EP141997 15.1575 -107.243 TS 60 990 0 6 330
1997253N12255 1997 81 EP MM LINDA 1997-09-11 00:00:00 TS 15.4000 -107.400 65 987 hurdat_epa main 506 500 O_____________ hurdat_epa EP141997 15.4000 -107.400 HU 65 987 1 5 321
1997253N12255 1997 81 EP MM LINDA 1997-09-11 03:00:00 TS 15.5725 -107.593 main 500 498 P_____________ EP141997 15.5725 -107.593 HU 72 980 1 5 308
1997253N12255 1997 81 EP MM LINDA 1997-09-11 06:00:00 TS 15.7000 -107.800 80 974 hurdat_epa main 504 502 O_____________ hurdat_epa EP141997 15.7000 -107.800 HU 80 974 1 5 301
1997253N12255 1997 81 EP MM LINDA 1997-09-11 09:00:00 TS 15.8075 -108.000 main 509 508 P_____________ EP141997 15.8075 -108.000 HU 90 967 2 4 297
1997253N12255 1997 81 EP MM LINDA 1997-09-11 12:00:00 TS 15.9000 -108.200 100 960 hurdat_epa main 516 515 O_____________ hurdat_epa EP141997 15.9000 -108.200 HU 100 960 3 4 294
1997253N12255 1997 81 EP MM LINDA 1997-09-11 15:00:00 TS 15.9775 -108.393 main 523 523 P_____________ EP141997 15.9775 -108.393 HU 112 947 3 4 297
1997253N12255 1997 81 EP MM LINDA 1997-09-11 18:00:00 TS 16.1000 -108.600 125 935 hurdat_epa main 530 530 O_____________ hurdat_epa EP141997 16.1000 -108.600 HU 125 935 4 6 309
1997253N12255 1997 81 EP MM LINDA 1997-09-11 21:00:00 TS 16.3275 -108.842 main 530 530 P_____________ EP141997 16.3275 -108.842 HU 140 920 5 7 316
1997253N12255 1997 81 EP MM LINDA 1997-09-12 00:00:00 TS 16.6000 -109.100 155 906 hurdat_epa main 530 530 O_____________ hurdat_epa EP141997 16.6000 -109.100 HU 155 906 5 7 318
1997253N12255 1997 81 EP MM LINDA 1997-09-12 03:00:00 TS 16.8424 -109.335 main 532 525 P_____________ EP141997 16.8424 -109.335 HU 157 904 5 7 316
1997253N12255 1997 81 EP MM LINDA 1997-09-12 06:00:00 TS 17.1000 -109.600 160 902 hurdat_epa main 538 538 O_____________ hurdat_epa EP141997 17.1000 -109.600 HU 160 902 5 8 313
1997253N12255 1997 81 EP MM LINDA 1997-09-12 09:00:00 TS 17.3850 -109.935 main 547 547 P_____________ EP141997 17.3850 -109.935 HU 157 902 5 9 312
1997253N12255 1997 81 EP MM LINDA 1997-09-12 12:00:00 TS 17.7000 -110.300 155 903 hurdat_epa main 566 551 O_____________ hurdat_epa EP141997 17.7000 -110.300 HU 155 903 5 9 315
1997253N12255 1997 81 EP MM LINDA 1997-09-12 15:00:00 TS 18.0424 -110.635 main 551 513 P_____________ EP141997 18.0424 -110.635 HU 152 904 5 10 316
1997253N12255 1997 81 EP MM LINDA 1997-09-12 18:00:00 TS 18.4000 -111.000 150 905 hurdat_epa main 513 488 O_____________ hurdat_epa EP141997 18.4000 -111.000 HU 150 905 5 10 314
1997253N12255 1997 81 EP MM LINDA 1997-09-12 21:00:00 TS 18.7574 -111.420 main 481 464 P_____________ EP141997 18.7574 -111.420 HU 147 905 5 11 309
1997253N12255 1997 81 EP MM LINDA 1997-09-13 00:00:00 TS 19.1000 -111.900 145 906 hurdat_epa main 468 458 O_____________ hurdat_epa EP141997 19.1000 -111.900 HU 145 906 5 12 304
1997253N12255 1997 81 EP MM LINDA 1997-09-13 03:00:00 TS 19.4150 -112.435 main 463 460 P_____________ EP141997 19.4150 -112.435 HU 145 908 5 12 300
1997253N12255 1997 81 EP MM LINDA 1997-09-13 06:00:00 TS 19.7000 -113.000 145 910 hurdat_epa main 473 472 O_____________ hurdat_epa EP141997 19.7000 -113.000 HU 145 910 5 12 298
1997253N12255 1997 81 EP MM LINDA 1997-09-13 09:00:00 TS 19.9648 -113.543 main 486 486 P_____________ EP141997 19.9648 -113.543 HU 142 912 5 12 296
1997253N12255 1997 81 EP MM LINDA 1997-09-13 12:00:00 TS 20.2000 -114.100 140 915 hurdat_epa main 520 520 O_____________ hurdat_epa EP141997 20.2000 -114.100 HU 140 915 5 12 292
1997253N12255 1997 81 EP MM LINDA 1997-09-13 15:00:00 TS 20.4074 -114.693 main 546 542 P_____________ EP141997 20.4074 -114.693 HU 137 918 5 12 290
1997253N12255 1997 81 EP MM LINDA 1997-09-13 18:00:00 TS 20.6000 -115.300 135 921 hurdat_epa main 563 563 O_____________ hurdat_epa EP141997 20.6000 -115.300 HU 135 921 4 12 290
1997253N12255 1997 81 EP MM LINDA 1997-09-13 21:00:00 TS 20.8072 -115.893 main 584 583 P_____________ EP141997 20.8072 -115.893 HU 130 928 4 12 290
1997253N12255 1997 81 EP MM LINDA 1997-09-14 00:00:00 TS 21.0000 -116.500 125 935 hurdat_epa main 611 611 O_____________ hurdat_epa EP141997 21.0000 -116.500 HU 125 935 4 12 287
1997253N12255 1997 81 EP MM LINDA 1997-09-14 03:00:00 TS 21.1574 -117.150 main 650 650 P_____________ EP141997 21.1574 -117.150 HU 117 940 4 12 284
1997253N12255 1997 81 EP MM LINDA 1997-09-14 06:00:00 TS 21.3000 -117.800 110 946 hurdat_epa main 693 693 O_____________ hurdat_epa EP141997 21.3000 -117.800 HU 110 946 3 12 284
1997253N12255 1997 81 EP MM LINDA 1997-09-14 09:00:00 TS 21.4498 -118.415 main 738 733 P_____________ EP141997 21.4498 -118.415 HU 102 948 3 12 285
1997253N12255 1997 81 EP MM LINDA 1997-09-14 12:00:00 TS 21.6000 -119.000 95 950 hurdat_epa main 779 779 O_____________ hurdat_epa EP141997 21.6000 -119.000 HU 95 950 2 11 286
1997253N12255 1997 81 EP MM LINDA 1997-09-14 15:00:00 TS 21.7498 -119.565 main 808 800 P_____________ EP141997 21.7498 -119.565 HU 87 954 2 11 286
1997253N12255 1997 81 EP MM LINDA 1997-09-14 18:00:00 TS 21.9000 -120.100 80 959 hurdat_epa main 825 825 O_____________ hurdat_epa EP141997 21.9000 -120.100 HU 80 959 1 10 287
1997253N12255 1997 81 EP MM LINDA 1997-09-14 21:00:00 TS 22.0498 -120.608 main 850 842 P_____________ EP141997 22.0498 -120.608 HU 77 960 1 10 288
1997253N12255 1997 81 EP MM LINDA 1997-09-15 00:00:00 TS 22.2000 -121.100 75 962 hurdat_epa main 868 868 O_____________ hurdat_epa EP141997 22.2000 -121.100 HU 75 962 1 10 289
1997253N12255 1997 81 EP MM LINDA 1997-09-15 03:00:00 TS 22.3573 -121.600 main 889 889 P_____________ EP141997 22.3573 -121.600 HU 70 971 1 10 288
1997253N12255 1997 81 EP MM LINDA 1997-09-15 06:00:00 TS 22.5000 -122.100 65 980 hurdat_epa main 920 920 O_____________ hurdat_epa EP141997 22.5000 -122.100 HU 65 980 1 10 285
1997253N12255 1997 81 EP MM LINDA 1997-09-15 09:00:00 TS 22.6149 -122.608 main 953 953 P_____________ EP141997 22.6149 -122.608 HU 60 987 0 9 282
1997253N12255 1997 81 EP MM LINDA 1997-09-15 12:00:00 TS 22.7000 -123.100 55 994 hurdat_epa main 987 987 O_____________ hurdat_epa EP141997 22.7000 -123.100 TS 55 994 0 9 280
1997253N12255 1997 81 EP MM LINDA 1997-09-15 15:00:00 TS 22.7649 -123.573 main 1022 1022 P_____________ EP141997 22.7649 -123.573 TS 52 995 0 8 277
1997253N12255 1997 81 EP MM LINDA 1997-09-15 18:00:00 TS 22.8000 -124.000 50 997 hurdat_epa main 1056 1056 O_____________ hurdat_epa EP141997 22.8000 -124.000 TS 50 997 0 7 273
1997253N12255 1997 81 EP MM LINDA 1997-09-15 21:00:00 TS 22.8074 -124.373 main 1091 1091 P_____________ EP141997 22.8074 -124.373 TS 47 998 0 6 270
1997253N12255 1997 81 EP MM LINDA 1997-09-16 00:00:00 TS 22.8000 -124.700 45 999 hurdat_epa main 1117 1117 O_____________ hurdat_epa EP141997 22.8000 -124.700 TS 45 999 0 6 269
1997253N12255 1997 81 EP MM LINDA 1997-09-16 03:00:00 TS 22.7999 -125.007 main 1143 1143 P_____________ EP141997 22.7999 -125.007 TS 42 999 0 6 270
1997253N12255 1997 81 EP MM LINDA 1997-09-16 06:00:00 TS 22.8000 -125.300 40 1000 hurdat_epa main 1170 1170 O_____________ hurdat_epa EP141997 22.8000 -125.300 TS 40 1000 0 6 269
1997253N12255 1997 81 EP MM LINDA 1997-09-16 09:00:00 TS 22.7925 -125.608 main 1196 1196 P_____________ EP141997 22.7925 -125.608 TS 37 1000 0 6 270
1997253N12255 1997 81 EP MM LINDA 1997-09-16 12:00:00 TS 22.8000 -125.900 35 1001 hurdat_epa main 1223 1223 O_____________ hurdat_epa EP141997 22.8000 -125.900 TS 35 1001 0 5 276
1997253N12255 1997 81 EP MM LINDA 1997-09-16 15:00:00 TS 22.8500 -126.165 main 1250 1245 P_____________ EP141997 22.8500 -126.165 TS 35 1001 0 5 282
1997253N12255 1997 81 EP MM LINDA 1997-09-16 18:00:00 TS 22.9000 -126.400 35 1001 hurdat_epa main 1263 1263 O_____________ hurdat_epa EP141997 22.9000 -126.400 TS 35 1001 0 4 277
1997253N12255 1997 81 EP MM LINDA 1997-09-16 21:00:00 TS 22.8999 -126.608 main 1281 1281 P_____________ EP141997 22.8999 -126.608 TS 35 1001 0 4 270
1997253N12255 1997 81 EP MM LINDA 1997-09-17 00:00:00 TS 22.9000 -126.800 35 1002 hurdat_epa main 1300 1300 O_____________ hurdat_epa EP141997 22.9000 -126.800 TS 35 1002 0 4 276
1997253N12255 1997 81 EP MM LINDA 1997-09-17 03:00:00 TS 22.9350 -127.000 main 1318 1318 P_____________ EP141997 22.9350 -127.000 TS 32 1002 -1 4 285
1997253N12255 1997 81 EP MM LINDA 1997-09-17 06:00:00 TS 23.0000 -127.200 30 1003 hurdat_epa main 1331 1331 O_____________ hurdat_epa EP141997 23.0000 -127.200 TD 30 1003 -1 4 292
1997253N12255 1997 81 EP MM LINDA 1997-09-17 09:00:00 TS 23.0850 -127.400 main 1345 1345 P_____________ EP141997 23.0850 -127.400 TD 30 1003 -1 4 299
1997253N12255 1997 81 EP MM LINDA 1997-09-17 12:00:00 TS 23.2000 -127.600 30 1004 hurdat_epa main 1359 1359 O_____________ hurdat_epa EP141997 23.2000 -127.600 TD 30 1004 -1 4 305
1997253N12255 1997 81 EP MM LINDA 1997-09-17 15:00:00 TS 23.3426 -127.800 main 1373 1369 P_____________ EP141997 23.3426 -127.800 TD 30 1005 -1 5 309
1997253N12255 1997 81 EP MM LINDA 1997-09-17 18:00:00 TS 23.5000 -128.000 30 1006 hurdat_epa main 1383 O_____________ hurdat_epa EP141997 23.5000 -128.000 TD 30 1006 -1 5 310

IBTrACS Databaseについて

本データベースは、米国NOAAが公開する1842年以降の世界の熱帯低気圧のベストトラックデータアーカイブInternational Best Track Archive for Climate Stewardship (IBTrACS)を、ウェブで閲覧しやすい形式に変換したものです。

最終更新日:2021-10-21